Time;durP1;ratioP1;P1;durP2;ratioP2;P2;SDS_P1;SDS_P2;PMS_P1;PMS_P2;Temp;Humidity;BMP_temperature;BMP_pressure;BME280_temperature;BME280_humidity;BME280_pressure;Samples;Min_cycle;Max_cycle;Signal;HPM_P1;HPM_P2
2023/09/11 00:01:14;;;;;;;1999.90;999.90;;;19.60;99.90;;;;;;5064665;28;20047;-66
2023/09/11 00:03:39;;;;;;;1999.90;999.90;;;19.60;99.90;;;;;;5058046;28;20374;-66
2023/09/11 00:06:06;;;;;;;1999.90;999.90;;;19.60;99.90;;;;;;5033729;28;20070;-67
2023/09/11 00:08:32;;;;;;;1999.90;999.90;;;19.60;99.90;;;;;;5047483;28;20103;-67
2023/09/11 00:10:58;;;;;;;1999.90;999.90;;;19.60;99.90;;;;;;5049550;28;20056;-66
2023/09/11 00:13:24;;;;;;;1999.90;999.90;;;19.60;99.90;;;;;;5046622;28;20041;-66
2023/09/11 00:15:50;;;;;;;1999.90;999.90;;;19.60;99.90;;;;;;5056315;28;20041;-66
2023/09/11 00:18:16;;;;;;;1999.90;999.90;;;19.60;99.90;;;;;;5043532;28;20037;-66
2023/09/11 00:20:41;;;;;;;1999.90;999.90;;;19.60;99.90;;;;;;5033596;28;20044;-67
2023/09/11 00:23:08;;;;;;;1999.90;999.90;;;19.60;99.90;;;;;;5050410;28;20048;-66
2023/09/11 00:25:34;;;;;;;1999.90;999.90;;;19.50;99.90;;;;;;5058732;28;20497;-66
2023/09/11 00:28:00;;;;;;;1999.90;999.90;;;19.50;99.90;;;;;;5047087;28;20055;-66
2023/09/11 00:30:25;;;;;;;1999.90;999.90;;;19.50;99.90;;;;;;5052462;28;20479;-66
2023/09/11 00:32:51;;;;;;;1999.90;999.90;;;19.50;99.90;;;;;;5051641;28;20037;-66
2023/09/11 00:35:17;;;;;;;1999.90;999.90;;;19.40;99.90;;;;;;5033434;28;20106;-67
2023/09/11 00:37:42;;;;;;;1999.90;999.90;;;19.50;99.90;;;;;;5029833;28;20037;-67
2023/09/11 00:40:08;;;;;;;1999.90;999.90;;;19.40;99.90;;;;;;5061022;28;20041;-67
2023/09/11 00:42:34;;;;;;;1999.90;999.90;;;19.50;99.90;;;;;;5029957;28;20065;-66
2023/09/11 00:44:59;;;;;;;1999.90;999.90;;;19.40;99.90;;;;;;5051945;28;20090;-67
2023/09/11 00:47:25;;;;;;;1999.90;999.90;;;19.40;99.90;;;;;;5047287;28;20044;-66
2023/09/11 00:49:53;;;;;;;1999.90;999.90;;;19.40;99.90;;;;;;5049549;28;20059;-66
2023/09/11 00:52:19;;;;;;;1999.90;999.90;;;19.30;99.90;;;;;;5043229;28;20397;-66
2023/09/11 00:54:45;;;;;;;1999.90;999.90;;;19.40;99.90;;;;;;5056441;28;20047;-67
2023/09/11 00:57:10;;;;;;;1999.90;999.90;;;19.30;99.90;;;;;;5049288;28;20132;-66
2023/09/11 00:59:36;;;;;;;1999.90;999.90;;;19.30;99.90;;;;;;5046310;28;20041;-67
2023/09/11 01:02:02;;;;;;;1999.90;999.90;;;19.30;99.90;;;;;;5049179;28;20033;-66
2023/09/11 01:04:28;;;;;;;1999.90;999.90;;;19.30;99.90;;;;;;5041556;28;20405;-66
2023/09/11 01:06:54;;;;;;;1999.90;999.90;;;19.30;99.90;;;;;;5033080;28;20439;-66
2023/09/11 01:09:20;;;;;;;1999.90;999.90;;;19.20;99.90;;;;;;5048132;28;20062;-66
2023/09/11 01:11:46;;;;;;;1999.90;999.90;;;19.20;99.90;;;;;;5052830;28;20416;-67
2023/09/11 01:14:11;;;;;;;1999.90;999.90;;;19.20;99.90;;;;;;5057022;28;20404;-66
2023/09/11 01:16:53;;;;;;;1999.90;999.90;;;19.20;99.90;;;;;;5051772;28;20565;-66
2023/09/11 01:19:24;;;;;;;1999.90;999.90;;;19.20;99.90;;;;;;5021409;28;20413;-66
2023/09/11 01:22:23;;;;;;;1999.90;999.90;;;19.10;99.90;;;;;;5048045;28;20037;-66
2023/09/11 01:25:05;;;;;;;1999.90;999.90;;;19.10;99.90;;;;;;5030351;28;20532;-67
2023/09/11 01:27:44;;;;;;;1999.90;999.90;;;19.10;99.90;;;;;;5062606;28;20464;-67
2023/09/11 01:30:12;;;;;;;1999.90;999.90;;;19.10;99.90;;;;;;5040851;28;20048;-67
2023/09/11 01:32:38;;;;;;;1999.90;999.90;;;19.00;99.90;;;;;;5049793;28;20049;-67
2023/09/11 01:35:04;;;;;;;1999.90;999.90;;;19.00;99.90;;;;;;5039740;28;20233;-67
2023/09/11 01:37:31;;;;;;;1999.90;999.90;;;19.00;99.90;;;;;;5060812;28;20131;-67
2023/09/11 01:39:57;;;;;;;1999.90;999.90;;;18.90;99.90;;;;;;5051767;28;20183;-67
2023/09/11 01:42:30;;;;;;;1999.90;999.90;;;18.90;99.90;;;;;;5049121;28;20422;-67
2023/09/11 01:44:58;;;;;;;1999.90;999.90;;;18.80;99.90;;;;;;5054900;28;20409;-67
2023/09/11 01:47:25;;;;;;;1999.90;999.90;;;18.80;99.90;;;;;;5042218;28;20048;-67
2023/09/11 01:49:53;;;;;;;1999.90;999.90;;;18.80;99.90;;;;;;5063320;28;20040;-67
2023/09/11 01:52:20;;;;;;;1999.90;999.90;;;18.80;99.90;;;;;;5028037;28;20103;-67
2023/09/11 01:54:45;;;;;;;1999.90;999.90;;;18.80;99.90;;;;;;5050985;28;20090;-67
2023/09/11 01:57:11;;;;;;;1999.90;999.90;;;18.70;99.90;;;;;;5050641;28;20124;-67
2023/09/11 01:59:37;;;;;;;1999.90;999.90;;;18.70;99.90;;;;;;5041913;28;20905;-67
2023/09/11 02:02:02;;;;;;;1999.90;999.90;;;18.70;99.90;;;;;;5046151;28;20036;-67
2023/09/11 02:04:28;;;;;;;1999.90;999.90;;;18.70;99.90;;;;;;5054855;28;20053;-67
2023/09/11 02:06:54;;;;;;;1999.90;999.90;;;18.70;99.90;;;;;;5053606;28;20484;-67
2023/09/11 02:09:19;;;;;;;1999.90;999.90;;;18.70;99.90;;;;;;5061055;28;20074;-67
2023/09/11 02:11:45;;;;;;;1999.90;999.90;;;18.70;99.90;;;;;;5060631;28;20713;-67
2023/09/11 02:14:11;;;;;;;1999.90;999.90;;;18.60;99.90;;;;;;5061547;28;20055;-67
2023/09/11 02:16:36;;;;;;;1999.90;999.90;;;18.60;99.90;;;;;;5061310;28;20043;-67
2023/09/11 02:19:02;;;;;;;1999.90;999.90;;;18.60;99.90;;;;;;5066143;28;20485;-67
2023/09/11 02:21:27;;;;;;;1999.90;999.90;;;18.60;99.90;;;;;;5061043;28;20489;-67
2023/09/11 02:23:53;;;;;;;1999.90;999.90;;;18.60;99.90;;;;;;5042217;28;20036;-67
2023/09/11 02:26:19;;;;;;;1999.90;999.90;;;18.70;99.90;;;;;;5030478;28;20048;-67
2023/09/11 02:28:44;;;;;;;1999.90;999.90;;;18.70;99.90;;;;;;5051442;28;20090;-67
2023/09/11 02:31:10;;;;;;;1999.90;999.90;;;18.70;99.90;;;;;;5055417;28;20129;-67
2023/09/11 02:33:36;;;;;;;1999.90;999.90;;;18.70;99.90;;;;;;5052690;28;20048;-67
2023/09/11 02:36:02;;;;;;;1999.90;999.90;;;18.70;99.90;;;;;;5045550;28;20425;-67
2023/09/11 02:38:28;;;;;;;1999.90;999.90;;;18.80;99.90;;;;;;5039431;28;20409;-67
2023/09/11 02:40:54;;;;;;;1999.90;999.90;;;18.80;99.90;;;;;;5044895;28;20033;-67
2023/09/11 02:43:19;;;;;;;1999.90;999.90;;;18.80;99.90;;;;;;5032819;28;20039;-67
2023/09/11 02:45:45;;;;;;;1999.90;999.90;;;18.80;99.90;;;;;;5057444;28;20489;-67
2023/09/11 02:48:11;;;;;;;1999.90;999.90;;;18.80;99.90;;;;;;5060813;28;20040;-67
2023/09/11 02:50:40;;;;;;;1999.90;999.90;;;18.80;99.90;;;;;;5067964;28;20049;-67
2023/09/11 02:53:09;;;;;;;1999.90;999.90;;;18.80;99.90;;;;;;5033539;28;20040;-67
2023/09/11 02:55:41;;;;;;;1999.90;999.90;;;18.80;99.90;;;;;;5049771;28;20502;-67
2023/09/11 02:58:07;;;;;;;1999.90;999.90;;;18.80;99.90;;;;;;5048322;28;20045;-67
2023/09/11 03:00:34;;;;;;;1999.90;999.90;;;18.90;99.90;;;;;;5046123;28;20041;-67
2023/09/11 03:03:01;;;;;;;1999.90;999.90;;;18.90;99.90;;;;;;5050384;28;20040;-67
2023/09/11 03:05:27;;;;;;;1999.90;999.90;;;18.90;99.90;;;;;;5052430;28;20056;-67
2023/09/11 03:07:53;;;;;;;1999.90;999.90;;;18.90;99.90;;;;;;5055676;28;20049;-67
2023/09/11 03:10:18;;;;;;;1999.90;999.90;;;18.90;99.90;;;;;;5057508;28;20497;-67
2023/09/11 03:12:44;;;;;;;1999.90;999.90;;;19.00;99.90;;;;;;5051278;28;20393;-67
2023/09/11 03:15:10;;;;;;;1999.90;999.90;;;19.00;99.90;;;;;;5060375;28;20040;-67
2023/09/11 03:17:35;;;;;;;1999.90;999.90;;;19.00;99.90;;;;;;5039252;28;20051;-67
2023/09/11 03:20:01;;;;;;;1999.90;999.90;;;19.00;99.90;;;;;;5045510;28;20041;-67
2023/09/11 03:22:28;;;;;;;1999.90;999.90;;;19.00;99.90;;;;;;5052785;28;20056;-67
2023/09/11 03:24:54;;;;;;;1999.90;999.90;;;19.00;99.90;;;;;;5042444;28;20416;-67
2023/09/11 03:27:19;;;;;;;1999.90;999.90;;;19.00;99.90;;;;;;5042672;28;20124;-67
2023/09/11 03:29:45;;;;;;;1999.90;999.90;;;19.00;99.90;;;;;;5051103;28;20399;-67
2023/09/11 03:32:11;;;;;;;1999.90;999.90;;;19.00;99.90;;;;;;5056161;28;20071;-67
2023/09/11 03:34:36;;;;;;;1999.90;999.90;;;19.00;99.90;;;;;;5054154;28;20405;-67
2023/09/11 03:37:02;;;;;;;1999.90;999.90;;;19.00;99.90;;;;;;5055445;28;21279;-67
2023/09/11 03:39:27;;;;;;;1999.90;999.90;;;19.00;99.90;;;;;;5053712;28;20045;-67
2023/09/11 03:41:53;;;;;;;1999.90;999.90;;;19.00;99.90;;;;;;5055337;28;20033;-67
2023/09/11 03:44:18;;;;;;;1999.90;999.90;;;18.90;99.90;;;;;;5042968;28;20036;-67
2023/09/11 03:46:44;;;;;;;1999.90;999.90;;;18.90;99.90;;;;;;5039108;28;20367;-66
2023/09/11 03:49:10;;;;;;;1999.90;999.90;;;18.90;99.90;;;;;;5055046;28;20040;-66
2023/09/11 03:51:35;;;;;;;1999.90;999.90;;;18.90;99.90;;;;;;5036406;28;20489;-66
2023/09/11 03:54:06;;;;;;;1999.90;999.90;;;18.90;99.90;;;;;;5056760;28;20037;-66
2023/09/11 03:56:32;;;;;;;1999.90;999.90;;;18.90;99.90;;;;;;5058552;28;20052;-66
2023/09/11 03:58:58;;;;;;;1999.90;999.90;;;18.90;99.90;;;;;;5037290;28;20507;-66
2023/09/11 04:01:23;;;;;;;1999.90;999.90;;;18.80;99.90;;;;;;5050461;28;20045;-66
2023/09/11 04:03:49;;;;;;;1999.90;999.90;;;18.80;99.90;;;;;;5049690;28;20619;-66
2023/09/11 04:06:15;;;;;;;1999.90;999.90;;;18.80;99.90;;;;;;5048547;28;20052;-67
2023/09/11 04:08:40;;;;;;;1999.90;999.90;;;18.80;99.90;;;;;;5059664;28;20126;-66
2023/09/11 04:11:06;;;;;;;1999.90;999.90;;;18.80;99.90;;;;;;5060331;28;20055;-66
2023/09/11 04:13:31;;;;;;;1999.90;999.90;;;18.80;99.90;;;;;;5049990;28;20173;-66
2023/09/11 04:15:57;;;;;;;1999.90;999.90;;;18.80;99.90;;;;;;5061077;28;20048;-66
2023/09/11 04:18:22;;;;;;;1999.90;999.90;;;18.80;99.90;;;;;;5062510;28;20163;-66
2023/09/11 04:20:48;;;;;;;1999.90;999.90;;;18.80;99.90;;;;;;5066718;28;20040;-66
2023/09/11 04:23:14;;;;;;;1999.90;999.90;;;18.70;99.90;;;;;;5067213;28;20060;-66
2023/09/11 04:25:44;;;;;;;1999.90;999.90;;;18.70;99.90;;;;;;5050047;28;20041;-66
2023/09/11 04:28:09;;;;;;;1999.90;999.90;;;18.70;99.90;;;;;;5064906;28;20420;-66
2023/09/11 04:30:35;;;;;;;1999.90;999.90;;;18.60;99.90;;;;;;5042764;28;20040;-67
2023/09/11 04:33:02;;;;;;;1999.90;999.90;;;18.70;99.90;;;;;;5044480;28;20040;-66
2023/09/11 04:35:28;;;;;;;1999.90;999.90;;;18.70;99.90;;;;;;5041941;28;20184;-66
2023/09/11 04:37:53;;;;;;;1999.90;999.90;;;18.70;99.90;;;;;;5052758;28;20544;-67
2023/09/11 04:40:19;;;;;;;1999.90;999.90;;;18.60;99.90;;;;;;5038618;28;20373;-66
2023/09/11 04:42:45;;;;;;;1999.90;999.90;;;18.70;99.90;;;;;;5047956;28;20436;-67
2023/09/11 04:45:11;;;;;;;1999.90;999.90;;;18.60;99.90;;;;;;5059555;28;20378;-66
2023/09/11 04:47:36;;;;;;;1999.90;999.90;;;18.70;99.90;;;;;;5047815;28;20036;-66
2023/09/11 04:50:03;;;;;;;1999.90;999.90;;;18.70;99.90;;;;;;5048365;28;20049;-66
2023/09/11 04:52:29;;;;;;;1999.90;999.90;;;18.70;99.90;;;;;;5053263;28;20384;-66
2023/09/11 04:54:54;;;;;;;1999.90;999.90;;;18.70;99.90;;;;;;5050369;28;20059;-67
2023/09/11 04:57:20;;;;;;;1999.90;999.90;;;18.70;99.90;;;;;;5049750;28;20043;-66
2023/09/11 04:59:46;;;;;;;1999.90;999.90;;;18.70;99.90;;;;;;5043871;28;20546;-67
2023/09/11 05:02:11;;;;;;;1999.90;999.90;;;18.80;99.90;;;;;;5047296;28;20148;-67
2023/09/11 05:04:39;;;;;;;1999.90;999.90;;;18.80;99.90;;;;;;5047917;28;20044;-67
2023/09/11 05:07:05;;;;;;;1999.90;999.90;;;18.80;99.90;;;;;;5052189;28;20049;-67
2023/09/11 05:09:31;;;;;;;1999.90;999.90;;;18.90;99.90;;;;;;5054253;28;20047;-67
2023/09/11 05:11:57;;;;;;;1999.90;999.90;;;18.90;99.90;;;;;;5064533;28;20100;-67
2023/09/11 05:14:22;;;;;;;1999.90;999.90;;;19.00;99.90;;;;;;5049763;28;20045;-66
2023/09/11 05:16:49;;;;;;;1999.90;999.90;;;19.00;99.90;;;;;;5045827;28;20460;-66
2023/09/11 05:19:14;;;;;;;1999.90;999.90;;;19.00;99.90;;;;;;5041702;28;20045;-66
2023/09/11 05:21:40;;;;;;;1999.90;999.90;;;19.10;99.90;;;;;;5048092;28;20118;-67
2023/09/11 05:24:06;;;;;;;1999.90;999.90;;;19.10;99.90;;;;;;5046954;28;20047;-66
2023/09/11 05:26:32;;;;;;;1999.90;999.90;;;19.20;99.90;;;;;;5047211;28;20029;-67
2023/09/11 05:28:58;;;;;;;1999.90;999.90;;;19.20;99.90;;;;;;5048608;28;20131;-68
2023/09/11 05:31:23;;;;;;;1999.90;999.90;;;19.20;99.90;;;;;;5031269;28;20127;-66
2023/09/11 05:33:49;;;;;;;1999.90;999.90;;;19.20;99.90;;;;;;5047814;28;20051;-67
2023/09/11 05:36:15;;;;;;;1999.90;999.90;;;19.20;99.90;;;;;;5051767;28;20037;-67
2023/09/11 05:38:40;;;;;;;1999.90;999.90;;;19.30;99.90;;;;;;5047678;28;20455;-67
2023/09/11 05:41:06;;;;;;;1999.90;999.90;;;19.20;99.90;;;;;;5016040;28;20037;-66
2023/09/11 05:43:32;;;;;;;1999.90;999.90;;;19.30;99.90;;;;;;5046457;28;20407;-67
2023/09/11 05:45:57;;;;;;;1999.90;999.90;;;19.30;99.90;;;;;;5039236;28;20081;-66
2023/09/11 05:48:23;;;;;;;1999.90;999.90;;;19.40;99.90;;;;;;5049154;28;20135;-67
2023/09/11 05:50:49;;;;;;;1999.90;999.90;;;19.40;99.90;;;;;;5061326;28;20480;-67
2023/09/11 05:53:14;;;;;;;1999.90;999.90;;;19.50;99.90;;;;;;5047987;28;20080;-66
2023/09/11 05:55:40;;;;;;;1999.90;999.90;;;19.50;99.90;;;;;;5047604;28;20483;-66
2023/09/11 05:58:06;;;;;;;1999.90;999.90;;;19.60;99.90;;;;;;5029599;28;20048;-67
2023/09/11 06:00:32;;;;;;;1999.90;999.90;;;19.60;99.90;;;;;;5045079;28;20052;-66
2023/09/11 06:02:57;;;;;;;1999.90;999.90;;;19.70;99.90;;;;;;5044303;28;20045;-66
2023/09/11 06:05:25;;;;;;;1999.90;999.90;;;19.70;99.90;;;;;;5031215;28;20052;-67
2023/09/11 06:07:51;;;;;;;1999.90;999.90;;;19.80;99.90;;;;;;5054211;28;20045;-67
2023/09/11 06:10:16;;;;;;;1999.90;999.90;;;19.90;99.90;;;;;;5061447;28;20051;-66
2023/09/11 06:12:42;;;;;;;1999.90;999.90;;;20.00;99.90;;;;;;5029777;28;20044;-67
2023/09/11 06:15:08;;;;;;;1999.90;999.90;;;20.00;99.90;;;;;;5055559;28;20047;-67
2023/09/11 06:17:33;;;;;;;1999.90;999.90;;;20.10;99.90;;;;;;5062127;28;20037;-67
2023/09/11 06:19:59;;;;;;;1999.90;999.90;;;20.20;99.90;;;;;;5041473;28;20602;-67
2023/09/11 06:22:25;;;;;;;1999.90;999.90;;;20.30;99.90;;;;;;5047131;28;20037;-67
2023/09/11 06:24:51;;;;;;;1999.90;999.90;;;20.30;99.90;;;;;;5031619;28;20052;-67
2023/09/11 06:27:18;;;;;;;1999.90;999.90;;;20.40;99.90;;;;;;5048753;28;20044;-67
2023/09/11 06:29:44;;;;;;;1623.80;866.97;;;20.50;99.90;;;;;;5058935;28;20044;-67
2023/09/11 06:32:12;;;;;;;492.15;465.67;;;20.50;99.90;;;;;;5050599;28;20527;-67
2023/09/11 06:34:37;;;;;;;1999.90;999.90;;;20.60;99.90;;;;;;5058724;28;20136;-67
2023/09/11 06:37:03;;;;;;;481.08;455.02;;;20.70;99.90;;;;;;5049041;28;20119;-67
2023/09/11 06:39:29;;;;;;;477.25;451.20;;;20.80;99.90;;;;;;5047098;28;20301;-67
2023/09/11 06:41:54;;;;;;;473.27;447.83;;;20.80;99.90;;;;;;5049155;28;20505;-67
2023/09/11 06:44:20;;;;;;;446.67;422.77;;;20.90;99.90;;;;;;5056890;28;20144;-67
2023/09/11 06:46:46;;;;;;;428.38;405.75;;;21.00;99.90;;;;;;5063220;28;20037;-66
2023/09/11 06:49:12;;;;;;;418.02;395.20;;;21.10;99.90;;;;;;5036855;28;20037;-67
2023/09/11 06:51:38;;;;;;;388.23;367.33;;;21.20;99.90;;;;;;5049691;28;20455;-67
2023/09/11 06:54:03;;;;;;;459.88;434.58;;;21.30;99.90;;;;;;5049694;28;20546;-67
2023/09/11 06:56:31;;;;;;;365.95;346.77;;;21.40;99.90;;;;;;5049265;28;20037;-67
2023/09/11 06:58:57;;;;;;;344.65;326.80;;;21.40;99.90;;;;;;5063760;28;20124;-67
2023/09/11 07:01:22;;;;;;;379.08;358.42;;;21.50;99.90;;;;;;5048425;28;20128;-67
2023/09/11 07:03:48;;;;;;;353.85;334.92;;;21.60;99.90;;;;;;5052536;28;20431;-67
2023/09/11 07:06:14;;;;;;;415.40;392.65;;;21.70;99.90;;;;;;5049623;28;20084;-67
2023/09/11 07:08:39;;;;;;;514.85;484.42;;;21.80;99.90;;;;;;5052992;28;20037;-67
2023/09/11 07:11:05;;;;;;;526.90;497.52;;;21.90;99.90;;;;;;5052502;28;20094;-67
2023/09/11 07:13:31;;;;;;;547.92;516.47;;;22.10;99.90;;;;;;5050497;28;20044;-67
2023/09/11 07:15:58;;;;;;;371.85;352.08;;;22.20;99.90;;;;;;5057574;28;20131;-67
2023/09/11 07:18:24;;;;;;;585.97;551.45;;;22.30;99.90;;;;;;5047126;28;20448;-67
2023/09/11 07:20:53;;;;;;;576.25;542.60;;;22.50;99.90;;;;;;5058950;28;20045;-66
2023/09/11 07:23:20;;;;;;;476.63;449.77;;;22.60;99.90;;;;;;5058218;28;20036;-67
2023/09/11 07:25:46;;;;;;;430.00;406.65;;;22.60;99.90;;;;;;5061007;28;20044;-67
2023/09/11 07:28:15;;;;;;;341.40;324.08;;;22.70;99.90;;;;;;5055733;28;20040;-67
2023/09/11 07:30:42;;;;;;;263.42;249.95;;;22.70;99.90;;;;;;5036209;28;20547;-67
2023/09/11 07:33:09;;;;;;;229.77;218.35;;;22.70;99.90;;;;;;5049094;28;20390;-67
2023/09/11 07:35:34;;;;;;;284.48;270.55;;;22.90;99.90;;;;;;5054141;28;20055;-67
2023/09/11 07:38:00;;;;;;;187.18;177.48;;;22.90;99.90;;;;;;5032812;28;20049;-67
2023/09/11 07:40:25;;;;;;;175.27;166.52;;;23.00;99.90;;;;;;5054021;28;20044;-67
2023/09/11 07:42:54;;;;;;;163.75;155.25;;;23.00;99.90;;;;;;5049259;28;20041;-67
2023/09/11 07:45:20;;;;;;;154.48;146.40;;;23.10;99.90;;;;;;5048281;28;20501;-67
2023/09/11 07:47:45;;;;;;;185.00;175.65;;;23.20;99.90;;;;;;5048205;28;20095;-67
2023/09/11 07:50:11;;;;;;;129.18;122.38;;;23.30;99.90;;;;;;5040275;28;20072;-67
2023/09/11 07:52:37;;;;;;;134.98;127.50;;;23.40;99.90;;;;;;5029818;28;20397;-67
2023/09/11 07:55:03;;;;;;;123.80;117.55;;;23.60;99.90;;;;;;5032718;28;20040;-67
2023/09/11 07:57:30;;;;;;;113.85;107.75;;;23.60;99.90;;;;;;5047845;28;20044;-67
2023/09/11 07:59:56;;;;;;;115.05;108.95;;;23.80;99.90;;;;;;5052515;28;20126;-67
2023/09/11 08:02:22;;;;;;;146.57;139.00;;;23.80;99.90;;;;;;5050251;28;20048;-67
2023/09/11 08:04:47;;;;;;;123.22;116.68;;;23.90;99.90;;;;;;5047123;28;20040;-67
2023/09/11 08:07:13;;;;;;;114.00;107.72;;;24.00;99.90;;;;;;5053618;28;20047;-67
2023/09/11 08:09:39;;;;;;;145.18;137.57;;;24.10;99.90;;;;;;5036450;28;20040;-67
2023/09/11 08:12:04;;;;;;;83.85;79.20;;;24.20;99.90;;;;;;5046743;28;20037;-67
2023/09/11 08:14:30;;;;;;;79.32;74.95;;;24.40;99.90;;;;;;5048770;28;20075;-67
2023/09/11 08:16:56;;;;;;;93.07;87.65;;;24.50;99.90;;;;;;5055362;28;20032;-67
2023/09/11 08:19:21;;;;;;;156.45;148.50;;;24.60;99.90;;;;;;5032781;28;20040;-67
2023/09/11 08:21:47;;;;;;;86.70;81.72;;;24.60;99.90;;;;;;5031578;28;20072;-67
2023/09/11 08:24:13;;;;;;;94.88;89.60;;;24.70;99.90;;;;;;5058950;28;20056;-67
2023/09/11 08:26:38;;;;;;;119.05;112.82;;;24.80;99.90;;;;;;5050158;28;20423;-67
2023/09/11 08:29:05;;;;;;;140.45;133.00;;;25.00;99.90;;;;;;5044492;28;20053;-67
2023/09/11 08:31:31;;;;;;;107.07;101.22;;;25.00;99.90;;;;;;5048463;28;20052;-67
2023/09/11 08:33:56;;;;;;;175.23;166.52;;;25.20;99.90;;;;;;5049750;28;20041;-67
2023/09/11 08:36:22;;;;;;;151.48;144.23;;;25.30;99.90;;;;;;5039289;28;21200;-67
2023/09/11 08:38:48;;;;;;;199.40;189.63;;;25.50;99.90;;;;;;5043499;28;20114;-67
2023/09/11 08:41:14;;;;;;;196.88;187.13;;;25.70;99.90;;;;;;5053302;28;20052;-67
2023/09/11 08:43:40;;;;;;;197.73;188.38;;;25.80;99.90;;;;;;5044524;28;20037;-67
2023/09/11 08:46:14;;;;;;;95.95;90.47;;;25.80;99.90;;;;;;5062576;28;20511;-67
2023/09/11 08:48:43;;;;;;;60.25;55.97;;;25.90;99.90;;;;;;5048142;28;20045;-67
2023/09/11 08:51:21;;;;;;;76.80;72.28;;;26.00;99.90;;;;;;5063949;28;20054;-67
2023/09/11 08:53:50;;;;;;;156.10;148.32;;;26.40;99.90;;;;;;5066366;28;20403;-67
2023/09/11 08:56:16;;;;;;;75.93;71.80;;;27.00;99.90;;;;;;5055271;28;20053;-67
2023/09/11 08:58:43;;;;;;;110.18;104.40;;;27.50;99.90;;;;;;5057572;28;20037;-67
2023/09/11 09:01:09;;;;;;;66.90;63.22;;;27.90;99.90;;;;;;5052445;28;20044;-67
2023/09/11 09:03:37;;;;;;;86.90;81.90;;;28.20;99.90;;;;;;5049994;28;20033;-68
2023/09/11 09:06:04;;;;;;;90.10;85.28;;;28.40;99.90;;;;;;5055080;28;20057;-67
2023/09/11 09:08:31;;;;;;;50.22;46.97;;;28.60;99.90;;;;;;5030921;28;20079;-67
2023/09/11 09:10:58;;;;;;;49.95;46.72;;;28.70;99.90;;;;;;5061936;28;20128;-67
2023/09/11 09:13:25;;;;;;;85.82;81.38;;;28.90;99.90;;;;;;5055071;28;20047;-68
2023/09/11 09:15:51;;;;;;;66.03;62.13;;;29.20;99.90;;;;;;5063874;28;20382;-67
2023/09/11 09:18:17;;;;;;;47.17;44.30;;;29.30;99.90;;;;;;5052398;28;20114;-67
2023/09/11 09:20:42;;;;;;;55.33;51.95;;;29.40;99.90;;;;;;5048242;28;20029;-67
2023/09/11 09:23:08;;;;;;;47.17;44.00;;;29.40;99.90;;;;;;5033401;28;20568;-67
2023/09/11 09:25:33;;;;;;;44.90;41.80;;;29.40;99.90;;;;;;5047308;28;20037;-68
2023/09/11 09:28:00;;;;;;;54.85;51.67;;;29.40;99.90;;;;;;5050101;28;20056;-67
2023/09/11 09:30:31;;;;;;;56.35;52.70;;;29.50;99.90;;;;;;5042220;28;20099;-68
2023/09/11 09:32:57;;;;;;;59.00;55.60;;;29.50;99.90;;;;;;5056781;28;20164;-67
2023/09/11 09:35:26;;;;;;;60.08;56.60;;;29.40;99.90;;;;;;5031133;28;20041;-67
2023/09/11 09:37:53;;;;;;;54.17;50.80;;;29.40;99.90;;;;;;5052432;28;20047;-68
2023/09/11 09:40:36;;;;;;;168.13;160.10;;;29.50;99.90;;;;;;5048551;28;20033;-67
2023/09/11 09:43:04;;;;;;;51.72;48.13;;;29.40;99.90;;;;;;5047508;28;20044;-65
2023/09/11 09:45:39;;;;;;;124.72;118.05;;;29.40;99.90;;;;;;5027989;28;20040;-65
2023/09/11 09:48:14;;;;;;;81.57;76.97;;;29.40;99.90;;;;;;5045592;28;20098;-65
2023/09/11 09:50:58;;;;;;;53.13;49.53;;;29.40;99.90;;;;;;5047074;28;20551;-65
2023/09/11 09:53:30;;;;;;;38.45;35.70;;;29.40;99.90;;;;;;5045837;28;20123;-65
2023/09/11 09:55:59;;;;;;;43.65;40.85;;;29.50;99.90;;;;;;5046901;28;20094;-65
2023/09/11 09:58:28;;;;;;;36.03;33.35;;;29.50;99.90;;;;;;5039953;28;20051;-66
2023/09/11 10:01:07;;;;;;;34.00;31.58;;;29.60;99.90;;;;;;5048443;28;20044;-66
2023/09/11 10:03:40;;;;;;;52.60;49.28;;;29.60;99.90;;;;;;5047477;28;20108;-68
2023/09/11 10:06:13;;;;;;;55.03;51.63;;;29.40;99.90;;;;;;5041472;28;20052;-68
2023/09/11 10:08:39;;;;;;;33.50;31.17;;;29.50;99.90;;;;;;5064054;28;20049;-65
2023/09/11 10:11:05;;;;;;;45.08;42.08;;;29.60;99.90;;;;;;5031655;28;20086;-65
2023/09/11 10:13:32;;;;;;;56.40;52.83;;;29.70;99.90;;;;;;5029191;28;20109;-65
2023/09/11 10:15:58;;;;;;;137.55;130.50;;;29.70;99.90;;;;;;5060783;28;20049;-66
2023/09/11 10:18:25;;;;;;;77.05;72.57;;;29.70;99.90;;;;;;5057494;28;20434;-65
2023/09/11 10:20:51;;;;;;;143.10;135.93;;;29.80;99.90;;;;;;5050401;28;20040;-65
2023/09/11 10:23:16;;;;;;;175.57;167.10;;;29.90;99.90;;;;;;5030655;28;20094;-68
2023/09/11 10:25:48;;;;;;;62.38;58.38;;;29.90;99.90;;;;;;5043800;28;20180;-68
2023/09/11 10:28:24;;;;;;;102.60;97.05;;;30.00;99.90;;;;;;5047110;28;20471;-68
2023/09/11 10:31:32;;;;;;;64.78;60.72;;;30.00;99.90;;;;;;5049049;28;20177;-68
2023/09/11 10:34:01;;;;;;;135.10;128.30;;;30.00;99.90;;;;;;5014867;28;20099;-65
2023/09/11 10:36:34;;;;;;;120.80;114.93;;;29.90;99.90;;;;;;4985786;28;20042;-68
2023/09/11 10:39:02;;;;;;;136.43;129.68;;;30.00;99.90;;;;;;4970548;28;20054;-68
2023/09/11 10:41:28;;;;;;;146.75;139.55;;;30.00;99.90;;;;;;5004972;28;20513;-68
2023/09/11 10:43:54;;;;;;;128.07;121.65;;;29.90;99.90;;;;;;4981687;28;20402;-68
2023/09/11 10:46:22;;;;;;;198.52;189.35;;;29.90;99.90;;;;;;4989478;28;20066;-68
2023/09/11 10:48:48;;;;;;;164.75;156.32;;;30.10;99.90;;;;;;4987104;28;20147;-68
2023/09/11 10:51:15;;;;;;;87.32;82.90;;;30.20;99.90;;;;;;4988678;28;20052;-68
2023/09/11 10:53:41;;;;;;;121.88;116.00;;;30.00;99.90;;;;;;4994256;28;20314;-68
2023/09/11 10:56:07;;;;;;;150.90;143.73;;;30.00;99.90;;;;;;4989101;28;20046;-67
2023/09/11 10:58:34;;;;;;;175.70;167.57;;;30.00;99.90;;;;;;5008674;28;20057;-68
2023/09/11 11:01:00;;;;;;;188.98;180.05;;;29.90;99.90;;;;;;4995745;28;20421;-68
2023/09/11 11:03:30;;;;;;;191.20;182.30;;;30.00;99.90;;;;;;4975566;28;20041;-68
2023/09/11 11:05:59;;;;;;;122.53;116.65;;;29.90;99.90;;;;;;5050761;28;20080;-68
2023/09/11 11:08:24;;;;;;;201.20;191.73;;;30.00;99.90;;;;;;5026479;28;20149;-69
2023/09/11 11:10:52;;;;;;;149.73;142.43;;;29.90;99.90;;;;;;5040968;28;20045;-68
2023/09/11 11:13:18;;;;;;;192.18;183.00;;;29.80;99.90;;;;;;5055202;28;20627;-68
2023/09/11 11:15:44;;;;;;;177.98;169.32;;;29.80;99.90;;;;;;5056936;28;20826;-68
2023/09/11 11:18:24;;;;;;;224.65;213.98;;;30.00;99.90;;;;;;5040882;28;20357;-65
2023/09/11 11:21:07;;;;;;;226.13;215.70;;;30.10;99.90;;;;;;5047862;28;20049;-65
2023/09/11 11:23:35;;;;;;;219.30;209.07;;;30.10;99.90;;;;;;5046841;28;20075;-65
2023/09/11 11:26:05;;;;;;;195.07;185.80;;;30.10;99.90;;;;;;5048713;28;20066;-65
2023/09/11 11:28:41;;;;;;;157.45;149.88;;;30.20;99.90;;;;;;5053008;28;20094;-66
2023/09/11 11:31:08;;;;;;;211.65;201.75;;;30.30;99.90;;;;;;5042564;28;20064;-65
2023/09/11 11:33:38;;;;;;;223.80;213.25;;;30.50;99.90;;;;;;5065392;28;20516;-65
2023/09/11 11:36:08;;;;;;;219.82;209.27;;;30.50;99.90;;;;;;5050997;28;20065;-65
2023/09/11 11:38:36;;;;;;;190.15;180.98;;;30.60;99.90;;;;;;5050072;28;20049;-66
2023/09/11 11:41:03;;;;;;;99.60;94.00;;;30.70;99.90;;;;;;5046747;28;20068;-65
2023/09/11 11:43:29;;;;;;;160.70;152.88;;;30.70;99.90;;;;;;5052746;28;20044;-66
2023/09/11 11:45:56;;;;;;;182.20;173.48;;;30.70;99.90;;;;;;5062248;28;20041;-68
2023/09/11 11:48:22;;;;;;;152.43;144.95;;;30.70;99.90;;;;;;5047506;28;20124;-67
2023/09/11 11:50:49;;;;;;;97.60;92.68;;;30.90;99.90;;;;;;5059327;28;20171;-66
2023/09/11 11:53:21;;;;;;;99.28;94.63;;;30.90;99.90;;;;;;5016711;28;20045;-66
2023/09/11 11:55:47;;;;;;;125.22;119.53;;;30.90;99.90;;;;;;5029580;28;20059;-66
2023/09/11 11:58:14;;;;;;;163.70;156.02;;;30.90;99.20;;;;;;5049566;28;20045;-66
2023/09/11 12:00:41;;;;;;;143.93;137.10;;;30.80;99.30;;;;;;5033103;28;20078;-66
2023/09/11 12:03:08;;;;;;;205.05;195.52;;;30.70;99.40;;;;;;5030297;28;20037;-66
2023/09/11 12:05:35;;;;;;;171.38;163.15;;;30.60;99.90;;;;;;5050180;28;20106;-66